sensor_id;sensor_type;location;lat;lon;timestamp;P1;durP1;ratioP1;P2;durP2;ratioP2
64936;SDS011;51452;47.698;19.050;2023-02-12T00:01:58;25.10;;;13.60;;
64936;SDS011;51452;47.698;19.050;2023-02-12T00:04:23;22.33;;;12.77;;
64936;SDS011;51452;47.698;19.050;2023-02-12T00:06:48;24.40;;;11.93;;
64936;SDS011;51452;47.698;19.050;2023-02-12T00:09:14;24.30;;;12.70;;
64936;SDS011;51452;47.698;19.050;2023-02-12T00:11:39;29.63;;;13.83;;
64936;SDS011;51452;47.698;19.050;2023-02-12T00:14:05;22.53;;;12.83;;
64936;SDS011;51452;47.698;19.050;2023-02-12T00:16:31;27.10;;;13.97;;
64936;SDS011;51452;47.698;19.050;2023-02-12T00:18:56;23.33;;;12.77;;
64936;SDS011;51452;47.698;19.050;2023-02-12T00:21:22;24.57;;;12.93;;
64936;SDS011;51452;47.698;19.050;2023-02-12T00:23:49;24.87;;;13.97;;
64936;SDS011;51452;47.698;19.050;2023-02-12T00:26:15;25.23;;;12.63;;
64936;SDS011;51452;47.698;19.050;2023-02-12T00:28:42;18.90;;;11.27;;
64936;SDS011;51452;47.698;19.050;2023-02-12T00:31:09;25.20;;;13.33;;
64936;SDS011;51452;47.698;19.050;2023-02-12T00:33:39;24.90;;;13.40;;
64936;SDS011;51452;47.698;19.050;2023-02-12T00:36:05;24.27;;;13.17;;
64936;SDS011;51452;47.698;19.050;2023-02-12T00:38:31;28.67;;;13.87;;
64936;SDS011;51452;47.698;19.050;2023-02-12T00:40:57;25.50;;;14.63;;
64936;SDS011;51452;47.698;19.050;2023-02-12T00:43:22;25.63;;;13.23;;
64936;SDS011;51452;47.698;19.050;2023-02-12T00:45:48;25.90;;;12.17;;
64936;SDS011;51452;47.698;19.050;2023-02-12T00:48:13;23.03;;;13.23;;
64936;SDS011;51452;47.698;19.050;2023-02-12T00:50:39;28.17;;;14.10;;
64936;SDS011;51452;47.698;19.050;2023-02-12T00:53:05;28.63;;;14.07;;
64936;SDS011;51452;47.698;19.050;2023-02-12T00:55:32;25.57;;;13.57;;
64936;SDS011;51452;47.698;19.050;2023-02-12T00:57:58;26.90;;;14.23;;
64936;SDS011;51452;47.698;19.050;2023-02-12T01:00:23;26.13;;;14.07;;
64936;SDS011;51452;47.698;19.050;2023-02-12T01:02:49;29.70;;;14.23;;
64936;SDS011;51452;47.698;19.050;2023-02-12T01:05:14;25.57;;;12.50;;
64936;SDS011;51452;47.698;19.050;2023-02-12T01:07:39;28.77;;;14.83;;
64936;SDS011;51452;47.698;19.050;2023-02-12T01:10:05;26.37;;;13.50;;
64936;SDS011;51452;47.698;19.050;2023-02-12T01:12:32;26.63;;;13.73;;
64936;SDS011;51452;47.698;19.050;2023-02-12T01:14:57;27.43;;;15.13;;
64936;SDS011;51452;47.698;19.050;2023-02-12T01:17:23;28.87;;;14.20;;
64936;SDS011;51452;47.698;19.050;2023-02-12T01:19:48;22.77;;;13.10;;
64936;SDS011;51452;47.698;19.050;2023-02-12T01:22:14;27.93;;;14.97;;
64936;SDS011;51452;47.698;19.050;2023-02-12T01:24:39;30.83;;;14.30;;
64936;SDS011;51452;47.698;19.050;2023-02-12T01:27:04;27.50;;;14.47;;
64936;SDS011;51452;47.698;19.050;2023-02-12T01:29:30;28.83;;;14.47;;
64936;SDS011;51452;47.698;19.050;2023-02-12T01:31:55;25.17;;;14.20;;
64936;SDS011;51452;47.698;19.050;2023-02-12T01:34:21;28.67;;;15.57;;
64936;SDS011;51452;47.698;19.050;2023-02-12T01:36:46;29.40;;;14.97;;
64936;SDS011;51452;47.698;19.050;2023-02-12T01:39:11;24.33;;;12.87;;
64936;SDS011;51452;47.698;19.050;2023-02-12T01:41:41;29.17;;;15.93;;
64936;SDS011;51452;47.698;19.050;2023-02-12T01:47:00;27.90;;;14.10;;
64936;SDS011;51452;47.698;19.050;2023-02-12T01:49:33;28.23;;;13.13;;
64936;SDS011;51452;47.698;19.050;2023-02-12T01:52:02;22.73;;;12.80;;
64936;SDS011;51452;47.698;19.050;2023-02-12T01:54:49;23.07;;;13.17;;
64936;SDS011;51452;47.698;19.050;2023-02-12T01:57:17;27.27;;;13.30;;
64936;SDS011;51452;47.698;19.050;2023-02-12T01:59:44;20.90;;;11.73;;
64936;SDS011;51452;47.698;19.050;2023-02-12T02:02:14;22.47;;;11.57;;
64936;SDS011;51452;47.698;19.050;2023-02-12T02:04:40;21.97;;;12.77;;
64936;SDS011;51452;47.698;19.050;2023-02-12T02:07:10;19.73;;;10.73;;
64936;SDS011;51452;47.698;19.050;2023-02-12T02:09:37;24.73;;;12.97;;
64936;SDS011;51452;47.698;19.050;2023-02-12T02:12:04;24.00;;;13.70;;
64936;SDS011;51452;47.698;19.050;2023-02-12T02:14:49;24.42;;;13.13;;
64936;SDS011;51452;47.698;19.050;2023-02-12T02:20:50;23.63;;;12.80;;
64936;SDS011;51452;47.698;19.050;2023-02-12T02:26:21;23.10;;;11.80;;
64936;SDS011;51452;47.698;19.050;2023-02-12T02:37:24;21.63;;;12.20;;
64936;SDS011;51452;47.698;19.050;2023-02-12T02:40:03;20.77;;;11.47;;
64936;SDS011;51452;47.698;19.050;2023-02-12T02:45:12;22.53;;;12.10;;
64936;SDS011;51452;47.698;19.050;2023-02-12T02:47:44;21.63;;;11.50;;
64936;SDS011;51452;47.698;19.050;2023-02-12T02:50:20;18.67;;;11.53;;
64936;SDS011;51452;47.698;19.050;2023-02-12T02:52:51;19.37;;;11.33;;
64936;SDS011;51452;47.698;19.050;2023-02-12T02:55:21;20.70;;;12.23;;
64936;SDS011;51452;47.698;19.050;2023-02-12T02:57:54;16.13;;;8.90;;
64936;SDS011;51452;47.698;19.050;2023-02-12T03:02:53;19.50;;;10.57;;
64936;SDS011;51452;47.698;19.050;2023-02-12T03:05:57;18.97;;;9.20;;
64936;SDS011;51452;47.698;19.050;2023-02-12T03:08:18;16.23;;;9.83;;
64936;SDS011;51452;47.698;19.050;2023-02-12T03:10:51;22.67;;;10.40;;
64936;SDS011;51452;47.698;19.050;2023-02-12T03:13:28;18.75;;;9.95;;
64936;SDS011;51452;47.698;19.050;2023-02-12T03:16:13;17.73;;;10.23;;
64936;SDS011;51452;47.698;19.050;2023-02-12T03:18:52;16.63;;;9.70;;
64936;SDS011;51452;47.698;19.050;2023-02-12T03:21:23;16.50;;;9.87;;
64936;SDS011;51452;47.698;19.050;2023-02-12T03:23:56;17.27;;;10.07;;
64936;SDS011;51452;47.698;19.050;2023-02-12T03:26:37;18.02;;;9.90;;
64936;SDS011;51452;47.698;19.050;2023-02-12T03:29:08;18.00;;;9.80;;
64936;SDS011;51452;47.698;19.050;2023-02-12T03:31:41;18.53;;;10.13;;
64936;SDS011;51452;47.698;19.050;2023-02-12T03:42:09;20.98;;;11.23;;
64936;SDS011;51452;47.698;19.050;2023-02-12T03:49:50;19.83;;;10.40;;
64936;SDS011;51452;47.698;19.050;2023-02-12T03:52:22;18.60;;;10.47;;
64936;SDS011;51452;47.698;19.050;2023-02-12T03:54:47;22.43;;;10.57;;
64936;SDS011;51452;47.698;19.050;2023-02-12T03:57:14;16.50;;;9.07;;
64936;SDS011;51452;47.698;19.050;2023-02-12T03:59:43;17.60;;;9.50;;
64936;SDS011;51452;47.698;19.050;2023-02-12T04:02:09;17.60;;;8.07;;
64936;SDS011;51452;47.698;19.050;2023-02-12T04:04:36;19.63;;;9.97;;
64936;SDS011;51452;47.698;19.050;2023-02-12T04:07:02;18.07;;;10.00;;
64936;SDS011;51452;47.698;19.050;2023-02-12T04:09:27;17.20;;;9.47;;
64936;SDS011;51452;47.698;19.050;2023-02-12T04:11:58;17.67;;;10.00;;
64936;SDS011;51452;47.698;19.050;2023-02-12T04:28:06;17.80;;;9.67;;
64936;SDS011;51452;47.698;19.050;2023-02-12T04:30:49;17.00;;;9.03;;
64936;SDS011;51452;47.698;19.050;2023-02-12T04:33:24;15.55;;;8.63;;
64936;SDS011;51452;47.698;19.050;2023-02-12T04:35:57;12.93;;;7.40;;
64936;SDS011;51452;47.698;19.050;2023-02-12T04:38:37;14.37;;;8.00;;
64936;SDS011;51452;47.698;19.050;2023-02-12T04:41:08;13.33;;;7.90;;
64936;SDS011;51452;47.698;19.050;2023-02-12T04:43:34;16.20;;;9.20;;
64936;SDS011;51452;47.698;19.050;2023-02-12T04:46:04;15.80;;;8.77;;
64936;SDS011;51452;47.698;19.050;2023-02-12T04:48:31;17.37;;;9.63;;
64936;SDS011;51452;47.698;19.050;2023-02-12T04:50:58;17.77;;;10.10;;
64936;SDS011;51452;47.698;19.050;2023-02-12T04:53:25;17.33;;;9.33;;
64936;SDS011;51452;47.698;19.050;2023-02-12T04:55:50;16.90;;;9.10;;
64936;SDS011;51452;47.698;19.050;2023-02-12T04:58:16;16.37;;;9.13;;
64936;SDS011;51452;47.698;19.050;2023-02-12T05:00:42;18.73;;;9.43;;
64936;SDS011;51452;47.698;19.050;2023-02-12T05:03:07;15.57;;;9.10;;
64936;SDS011;51452;47.698;19.050;2023-02-12T05:05:33;18.87;;;10.40;;
64936;SDS011;51452;47.698;19.050;2023-02-12T05:07:58;17.60;;;9.50;;
64936;SDS011;51452;47.698;19.050;2023-02-12T05:10:24;16.47;;;9.07;;
64936;SDS011;51452;47.698;19.050;2023-02-12T05:12:52;16.83;;;10.50;;
64936;SDS011;51452;47.698;19.050;2023-02-12T05:15:18;18.70;;;9.07;;
64936;SDS011;51452;47.698;19.050;2023-02-12T05:17:44;16.83;;;8.90;;
64936;SDS011;51452;47.698;19.050;2023-02-12T05:20:10;16.10;;;8.93;;
64936;SDS011;51452;47.698;19.050;2023-02-12T05:22:36;16.33;;;8.83;;
64936;SDS011;51452;47.698;19.050;2023-02-12T05:25:01;16.10;;;8.83;;
64936;SDS011;51452;47.698;19.050;2023-02-12T05:27:27;14.63;;;8.73;;
64936;SDS011;51452;47.698;19.050;2023-02-12T05:29:52;14.00;;;8.07;;
64936;SDS011;51452;47.698;19.050;2023-02-12T05:32:18;17.07;;;9.40;;
64936;SDS011;51452;47.698;19.050;2023-02-12T05:34:43;15.63;;;8.57;;
64936;SDS011;51452;47.698;19.050;2023-02-12T05:37:09;13.47;;;7.23;;
64936;SDS011;51452;47.698;19.050;2023-02-12T05:39:34;15.07;;;8.73;;
64936;SDS011;51452;47.698;19.050;2023-02-12T05:41:59;15.20;;;8.57;;
64936;SDS011;51452;47.698;19.050;2023-02-12T05:44:25;14.50;;;8.43;;
64936;SDS011;51452;47.698;19.050;2023-02-12T05:46:50;13.80;;;8.67;;
64936;SDS011;51452;47.698;19.050;2023-02-12T05:49:16;17.23;;;9.10;;
64936;SDS011;51452;47.698;19.050;2023-02-12T05:51:41;15.13;;;8.73;;
64936;SDS011;51452;47.698;19.050;2023-02-12T05:54:06;16.00;;;9.13;;
64936;SDS011;51452;47.698;19.050;2023-02-12T05:56:33;17.17;;;8.80;;
64936;SDS011;51452;47.698;19.050;2023-02-12T05:59:07;16.00;;;9.00;;
64936;SDS011;51452;47.698;19.050;2023-02-12T06:01:37;17.97;;;9.60;;
64936;SDS011;51452;47.698;19.050;2023-02-12T06:04:06;16.53;;;9.87;;
64936;SDS011;51452;47.698;19.050;2023-02-12T06:06:34;17.43;;;9.20;;
64936;SDS011;51452;47.698;19.050;2023-02-12T06:09:00;17.63;;;9.30;;
64936;SDS011;51452;47.698;19.050;2023-02-12T06:11:25;14.80;;;8.83;;
64936;SDS011;51452;47.698;19.050;2023-02-12T06:13:55;16.00;;;9.10;;
64936;SDS011;51452;47.698;19.050;2023-02-12T06:18:50;15.37;;;8.77;;
64936;SDS011;51452;47.698;19.050;2023-02-12T06:21:16;16.27;;;8.67;;
64936;SDS011;51452;47.698;19.050;2023-02-12T06:23:43;14.80;;;7.53;;
64936;SDS011;51452;47.698;19.050;2023-02-12T06:26:09;17.37;;;9.17;;
64936;SDS011;51452;47.698;19.050;2023-02-12T06:28:34;15.10;;;7.90;;
64936;SDS011;51452;47.698;19.050;2023-02-12T06:31:00;15.77;;;8.93;;
64936;SDS011;51452;47.698;19.050;2023-02-12T06:33:25;15.37;;;8.43;;
64936;SDS011;51452;47.698;19.050;2023-02-12T06:35:51;13.23;;;7.97;;
64936;SDS011;51452;47.698;19.050;2023-02-12T06:38:17;12.67;;;7.87;;
64936;SDS011;51452;47.698;19.050;2023-02-12T06:40:42;16.90;;;8.43;;
64936;SDS011;51452;47.698;19.050;2023-02-12T06:43:08;14.57;;;8.63;;
64936;SDS011;51452;47.698;19.050;2023-02-12T06:45:34;18.40;;;8.50;;
64936;SDS011;51452;47.698;19.050;2023-02-12T06:47:59;15.93;;;8.23;;
64936;SDS011;51452;47.698;19.050;2023-02-12T06:50:25;14.23;;;8.57;;
64936;SDS011;51452;47.698;19.050;2023-02-12T06:52:50;15.13;;;8.43;;
64936;SDS011;51452;47.698;19.050;2023-02-12T06:55:16;14.40;;;8.40;;
64936;SDS011;51452;47.698;19.050;2023-02-12T06:57:41;13.83;;;7.97;;
64936;SDS011;51452;47.698;19.050;2023-02-12T07:00:07;15.37;;;7.93;;
64936;SDS011;51452;47.698;19.050;2023-02-12T07:02:33;13.27;;;8.23;;
64936;SDS011;51452;47.698;19.050;2023-02-12T07:04:58;13.57;;;7.13;;
64936;SDS011;51452;47.698;19.050;2023-02-12T07:07:24;13.80;;;7.60;;
64936;SDS011;51452;47.698;19.050;2023-02-12T07:09:49;14.37;;;6.90;;
64936;SDS011;51452;47.698;19.050;2023-02-12T07:12:14;14.50;;;8.10;;
64936;SDS011;51452;47.698;19.050;2023-02-12T07:14:40;14.07;;;8.47;;
64936;SDS011;51452;47.698;19.050;2023-02-12T07:17:05;13.37;;;7.97;;
64936;SDS011;51452;47.698;19.050;2023-02-12T07:19:32;13.03;;;7.60;;
64936;SDS011;51452;47.698;19.050;2023-02-12T07:21:58;12.63;;;7.03;;
64936;SDS011;51452;47.698;19.050;2023-02-12T07:24:23;13.90;;;7.90;;
64936;SDS011;51452;47.698;19.050;2023-02-12T07:26:48;13.47;;;7.10;;
64936;SDS011;51452;47.698;19.050;2023-02-12T07:29:14;11.60;;;7.07;;
64936;SDS011;51452;47.698;19.050;2023-02-12T07:31:39;10.97;;;6.67;;
64936;SDS011;51452;47.698;19.050;2023-02-12T07:34:05;9.97;;;6.23;;
64936;SDS011;51452;47.698;19.050;2023-02-12T07:36:31;10.37;;;6.77;;
64936;SDS011;51452;47.698;19.050;2023-02-12T07:38:57;11.17;;;6.80;;
64936;SDS011;51452;47.698;19.050;2023-02-12T07:43:57;13.00;;;7.03;;
64936;SDS011;51452;47.698;19.050;2023-02-12T07:48:55;9.53;;;5.60;;
64936;SDS011;51452;47.698;19.050;2023-02-12T07:51:22;11.13;;;5.97;;
64936;SDS011;51452;47.698;19.050;2023-02-12T07:53:48;11.33;;;5.73;;
64936;SDS011;51452;47.698;19.050;2023-02-12T07:56:16;9.47;;;5.07;;
64936;SDS011;51452;47.698;19.050;2023-02-12T07:58:44;9.10;;;5.23;;
64936;SDS011;51452;47.698;19.050;2023-02-12T08:01:15;7.23;;;4.33;;
64936;SDS011;51452;47.698;19.050;2023-02-12T08:03:50;9.90;;;5.20;;
64936;SDS011;51452;47.698;19.050;2023-02-12T08:06:17;8.53;;;4.60;;
64936;SDS011;51452;47.698;19.050;2023-02-12T08:08:45;11.13;;;4.83;;
64936;SDS011;51452;47.698;19.050;2023-02-12T08:11:12;8.73;;;4.90;;
64936;SDS011;51452;47.698;19.050;2023-02-12T08:13:38;8.47;;;4.80;;
64936;SDS011;51452;47.698;19.050;2023-02-12T08:16:06;7.60;;;4.60;;
64936;SDS011;51452;47.698;19.050;2023-02-12T08:18:33;7.73;;;4.83;;
64936;SDS011;51452;47.698;19.050;2023-02-12T08:21:00;9.53;;;4.80;;
64936;SDS011;51452;47.698;19.050;2023-02-12T08:23:29;7.70;;;4.57;;
64936;SDS011;51452;47.698;19.050;2023-02-12T08:26:03;8.93;;;5.40;;
64936;SDS011;51452;47.698;19.050;2023-02-12T08:28:39;9.33;;;4.80;;
64936;SDS011;51452;47.698;19.050;2023-02-12T08:31:08;5.60;;;3.77;;
64936;SDS011;51452;47.698;19.050;2023-02-12T08:33:35;9.73;;;5.00;;
64936;SDS011;51452;47.698;19.050;2023-02-12T08:36:03;12.37;;;5.87;;
64936;SDS011;51452;47.698;19.050;2023-02-12T08:38:30;13.40;;;8.60;;
64936;SDS011;51452;47.698;19.050;2023-02-12T08:41:30;17.33;;;9.20;;
64936;SDS011;51452;47.698;19.050;2023-02-12T08:43:50;16.83;;;8.67;;
64936;SDS011;51452;47.698;19.050;2023-02-12T08:46:19;14.40;;;8.57;;
64936;SDS011;51452;47.698;19.050;2023-02-12T08:48:46;14.60;;;8.33;;
64936;SDS011;51452;47.698;19.050;2023-02-12T08:51:19;14.30;;;7.80;;
64936;SDS011;51452;47.698;19.050;2023-02-12T08:53:50;11.25;;;6.85;;
64936;SDS011;51452;47.698;19.050;2023-02-12T08:56:17;12.13;;;6.73;;
64936;SDS011;51452;47.698;19.050;2023-02-12T08:58:43;10.90;;;6.23;;
64936;SDS011;51452;47.698;19.050;2023-02-12T09:01:13;11.03;;;6.17;;
64936;SDS011;51452;47.698;19.050;2023-02-12T09:03:42;8.67;;;5.60;;
64936;SDS011;51452;47.698;19.050;2023-02-12T09:06:08;10.10;;;6.10;;
64936;SDS011;51452;47.698;19.050;2023-02-12T09:08:34;8.63;;;5.07;;
64936;SDS011;51452;47.698;19.050;2023-02-12T09:11:04;7.93;;;5.13;;
64936;SDS011;51452;47.698;19.050;2023-02-12T09:13:31;7.73;;;4.67;;
64936;SDS011;51452;47.698;19.050;2023-02-12T09:15:58;8.17;;;4.10;;
64936;SDS011;51452;47.698;19.050;2023-02-12T09:18:25;7.97;;;3.97;;
64936;SDS011;51452;47.698;19.050;2023-02-12T09:20:51;5.43;;;2.90;;
64936;SDS011;51452;47.698;19.050;2023-02-12T09:23:16;4.30;;;2.50;;
64936;SDS011;51452;47.698;19.050;2023-02-12T09:25:42;5.50;;;2.97;;
64936;SDS011;51452;47.698;19.050;2023-02-12T09:28:09;6.57;;;3.10;;
64936;SDS011;51452;47.698;19.050;2023-02-12T09:30:36;4.70;;;3.20;;
64936;SDS011;51452;47.698;19.050;2023-02-12T09:33:03;5.13;;;3.17;;
64936;SDS011;51452;47.698;19.050;2023-02-12T09:35:29;3.30;;;2.20;;
64936;SDS011;51452;47.698;19.050;2023-02-12T09:37:55;4.97;;;3.13;;
64936;SDS011;51452;47.698;19.050;2023-02-12T09:40:21;4.70;;;2.90;;
64936;SDS011;51452;47.698;19.050;2023-02-12T09:46:04;6.70;;;3.30;;
64936;SDS011;51452;47.698;19.050;2023-02-12T09:51:14;5.40;;;2.73;;
64936;SDS011;51452;47.698;19.050;2023-02-12T09:53:40;3.77;;;2.37;;
64936;SDS011;51452;47.698;19.050;2023-02-12T09:56:14;5.53;;;2.60;;
64936;SDS011;51452;47.698;19.050;2023-02-12T09:58:51;4.45;;;2.30;;
64936;SDS011;51452;47.698;19.050;2023-02-12T10:01:19;4.95;;;2.00;;
64936;SDS011;51452;47.698;19.050;2023-02-12T10:03:47;3.87;;;2.00;;
64936;SDS011;51452;47.698;19.050;2023-02-12T10:27:31;5.40;;;2.93;;
64936;SDS011;51452;47.698;19.050;2023-02-12T10:30:03;5.00;;;3.00;;
64936;SDS011;51452;47.698;19.050;2023-02-12T10:32:38;4.63;;;2.80;;
64936;SDS011;51452;47.698;19.050;2023-02-12T10:35:14;6.87;;;3.40;;
64936;SDS011;51452;47.698;19.050;2023-02-12T10:37:48;4.87;;;2.87;;
64936;SDS011;51452;47.698;19.050;2023-02-12T10:42:50;4.90;;;3.07;;
64936;SDS011;51452;47.698;19.050;2023-02-12T10:45:19;5.70;;;3.30;;
64936;SDS011;51452;47.698;19.050;2023-02-12T10:47:46;3.97;;;2.60;;
64936;SDS011;51452;47.698;19.050;2023-02-12T10:53:24;5.70;;;2.93;;
64936;SDS011;51452;47.698;19.050;2023-02-12T10:58:36;3.83;;;2.70;;
64936;SDS011;51452;47.698;19.050;2023-02-12T11:01:16;4.10;;;2.57;;
64936;SDS011;51452;47.698;19.050;2023-02-12T11:03:46;6.80;;;3.27;;
64936;SDS011;51452;47.698;19.050;2023-02-12T11:08:39;4.77;;;2.83;;
64936;SDS011;51452;47.698;19.050;2023-02-12T11:11:13;5.43;;;2.80;;
64936;SDS011;51452;47.698;19.050;2023-02-12T11:14:32;4.17;;;2.70;;
64936;SDS011;51452;47.698;19.050;2023-02-12T11:16:45;5.40;;;2.90;;
64936;SDS011;51452;47.698;19.050;2023-02-12T11:19:22;6.07;;;3.20;;
64936;SDS011;51452;47.698;19.050;2023-02-12T11:21:49;7.30;;;3.20;;
64936;SDS011;51452;47.698;19.050;2023-02-12T11:26:50;5.70;;;3.05;;
64936;SDS011;51452;47.698;19.050;2023-02-12T11:29:17;3.83;;;2.40;;
64936;SDS011;51452;47.698;19.050;2023-02-12T11:32:00;4.67;;;2.60;;
64936;SDS011;51452;47.698;19.050;2023-02-12T11:34:27;4.33;;;2.60;;
64936;SDS011;51452;47.698;19.050;2023-02-12T11:36:55;5.10;;;2.80;;
64936;SDS011;51452;47.698;19.050;2023-02-12T11:39:31;3.80;;;2.37;;
64936;SDS011;51452;47.698;19.050;2023-02-12T11:42:02;4.93;;;2.90;;
64936;SDS011;51452;47.698;19.050;2023-02-12T11:44:37;4.73;;;2.70;;
64936;SDS011;51452;47.698;19.050;2023-02-12T11:47:05;5.33;;;2.57;;
64936;SDS011;51452;47.698;19.050;2023-02-12T11:52:23;4.60;;;2.60;;
64936;SDS011;51452;47.698;19.050;2023-02-12T11:54:52;5.57;;;2.47;;
64936;SDS011;51452;47.698;19.050;2023-02-12T11:57:34;5.27;;;2.33;;
64936;SDS011;51452;47.698;19.050;2023-02-12T12:00:12;3.97;;;2.07;;
64936;SDS011;51452;47.698;19.050;2023-02-12T12:02:49;5.40;;;2.00;;
64936;SDS011;51452;47.698;19.050;2023-02-12T12:05:37;3.90;;;2.30;;
64936;SDS011;51452;47.698;19.050;2023-02-12T12:08:14;3.30;;;2.13;;
64936;SDS011;51452;47.698;19.050;2023-02-12T12:10:53;3.10;;;2.07;;
64936;SDS011;51452;47.698;19.050;2023-02-12T12:13:26;4.73;;;2.20;;
64936;SDS011;51452;47.698;19.050;2023-02-12T12:16:08;6.00;;;2.60;;
64936;SDS011;51452;47.698;19.050;2023-02-12T12:18:58;3.50;;;2.27;;
64936;SDS011;51452;47.698;19.050;2023-02-12T12:22:22;4.47;;;1.87;;
64936;SDS011;51452;47.698;19.050;2023-02-12T12:25:04;3.37;;;2.20;;
64936;SDS011;51452;47.698;19.050;2023-02-12T12:27:53;3.13;;;1.90;;
64936;SDS011;51452;47.698;19.050;2023-02-12T12:38:51;3.17;;;1.77;;
64936;SDS011;51452;47.698;19.050;2023-02-12T12:44:02;3.70;;;2.07;;
64936;SDS011;51452;47.698;19.050;2023-02-12T12:46:47;3.93;;;2.00;;
64936;SDS011;51452;47.698;19.050;2023-02-12T12:54:41;3.42;;;2.38;;
64936;SDS011;51452;47.698;19.050;2023-02-12T12:57:35;4.13;;;2.23;;
64936;SDS011;51452;47.698;19.050;2023-02-12T13:00:50;4.40;;;2.23;;
64936;SDS011;51452;47.698;19.050;2023-02-12T13:17:32;24.13;;;12.83;;
64936;SDS011;51452;47.698;19.050;2023-02-12T13:25:17;19.57;;;11.23;;
64936;SDS011;51452;47.698;19.050;2023-02-12T13:28:07;18.80;;;9.93;;
64936;SDS011;51452;47.698;19.050;2023-02-12T13:30:41;15.27;;;8.73;;
64936;SDS011;51452;47.698;19.050;2023-02-12T13:36:03;15.87;;;8.73;;
64936;SDS011;51452;47.698;19.050;2023-02-12T13:38:33;16.07;;;8.70;;
64936;SDS011;51452;47.698;19.050;2023-02-12T13:41:04;19.80;;;9.27;;
64936;SDS011;51452;47.698;19.050;2023-02-12T13:46:06;17.17;;;9.93;;
64936;SDS011;51452;47.698;19.050;2023-02-12T13:54:13;20.77;;;11.00;;
64936;SDS011;51452;47.698;19.050;2023-02-12T13:56:50;24.70;;;12.97;;
64936;SDS011;51452;47.698;19.050;2023-02-12T14:01:56;26.90;;;12.70;;
64936;SDS011;51452;47.698;19.050;2023-02-12T14:04:46;26.13;;;12.97;;
64936;SDS011;51452;47.698;19.050;2023-02-12T14:07:19;28.30;;;14.87;;
64936;SDS011;51452;47.698;19.050;2023-02-12T14:12:26;32.13;;;15.83;;
64936;SDS011;51452;47.698;19.050;2023-02-12T14:15:41;30.13;;;16.30;;
64936;SDS011;51452;47.698;19.050;2023-02-12T14:17:55;30.30;;;16.03;;
64936;SDS011;51452;47.698;19.050;2023-02-12T14:20:33;35.43;;;16.83;;
64936;SDS011;51452;47.698;19.050;2023-02-12T14:23:21;33.73;;;17.07;;
64936;SDS011;51452;47.698;19.050;2023-02-12T14:28:46;35.42;;;19.65;;
64936;SDS011;51452;47.698;19.050;2023-02-12T14:38:59;41.87;;;21.80;;
64936;SDS011;51452;47.698;19.050;2023-02-12T14:41:26;44.50;;;21.97;;
64936;SDS011;51452;47.698;19.050;2023-02-12T14:46:55;42.30;;;22.57;;
64936;SDS011;51452;47.698;19.050;2023-02-12T14:54:54;46.40;;;23.03;;
64936;SDS011;51452;47.698;19.050;2023-02-12T14:57:25;46.10;;;24.67;;
64936;SDS011;51452;47.698;19.050;2023-02-12T15:02:30;50.93;;;25.10;;
64936;SDS011;51452;47.698;19.050;2023-02-12T15:05:03;48.77;;;26.70;;
64936;SDS011;51452;47.698;19.050;2023-02-12T15:10:17;49.53;;;25.43;;
64936;SDS011;51452;47.698;19.050;2023-02-12T15:15:33;44.90;;;25.07;;
64936;SDS011;51452;47.698;19.050;2023-02-12T15:18:36;45.53;;;25.10;;
64936;SDS011;51452;47.698;19.050;2023-02-12T15:21:14;50.67;;;26.60;;
64936;SDS011;51452;47.698;19.050;2023-02-12T15:26:30;51.27;;;27.70;;
64936;SDS011;51452;47.698;19.050;2023-02-12T15:28:58;47.77;;;26.30;;
64936;SDS011;51452;47.698;19.050;2023-02-12T15:31:25;47.20;;;25.40;;
64936;SDS011;51452;47.698;19.050;2023-02-12T15:33:55;48.07;;;26.43;;
64936;SDS011;51452;47.698;19.050;2023-02-12T15:36:23;44.97;;;24.57;;
64936;SDS011;51452;47.698;19.050;2023-02-12T15:39:01;45.70;;;24.33;;
64936;SDS011;51452;47.698;19.050;2023-02-12T15:41:36;45.20;;;23.93;;
64936;SDS011;51452;47.698;19.050;2023-02-12T15:44:23;43.80;;;24.57;;
64936;SDS011;51452;47.698;19.050;2023-02-12T15:47:10;44.63;;;22.60;;
64936;SDS011;51452;47.698;19.050;2023-02-12T15:49:41;43.47;;;24.60;;
64936;SDS011;51452;47.698;19.050;2023-02-12T15:52:22;48.60;;;25.33;;
64936;SDS011;51452;47.698;19.050;2023-02-12T15:54:58;48.57;;;26.23;;
64936;SDS011;51452;47.698;19.050;2023-02-12T15:57:25;50.77;;;25.70;;
64936;SDS011;51452;47.698;19.050;2023-02-12T15:59:54;56.03;;;28.70;;
64936;SDS011;51452;47.698;19.050;2023-02-12T16:02:26;53.87;;;29.07;;
64936;SDS011;51452;47.698;19.050;2023-02-12T16:04:54;53.73;;;27.27;;
64936;SDS011;51452;47.698;19.050;2023-02-12T16:07:21;50.63;;;26.90;;
64936;SDS011;51452;47.698;19.050;2023-02-12T16:09:49;57.73;;;29.30;;
64936;SDS011;51452;47.698;19.050;2023-02-12T16:12:18;63.13;;;30.93;;
64936;SDS011;51452;47.698;19.050;2023-02-12T16:14:53;57.90;;;29.33;;
64936;SDS011;51452;47.698;19.050;2023-02-12T16:17:25;51.83;;;27.02;;
64936;SDS011;51452;47.698;19.050;2023-02-12T16:19:54;63.80;;;32.03;;
64936;SDS011;51452;47.698;19.050;2023-02-12T16:22:43;54.10;;;29.07;;
64936;SDS011;51452;47.698;19.050;2023-02-12T16:25:13;57.17;;;30.03;;
64936;SDS011;51452;47.698;19.050;2023-02-12T16:27:47;56.47;;;26.47;;
64936;SDS011;51452;47.698;19.050;2023-02-12T16:30:31;51.78;;;26.13;;
64936;SDS011;51452;47.698;19.050;2023-02-12T16:36:04;93.97;;;48.40;;
64936;SDS011;51452;47.698;19.050;2023-02-12T16:38:42;57.20;;;28.63;;
64936;SDS011;51452;47.698;19.050;2023-02-12T16:43:50;50.00;;;26.27;;
64936;SDS011;51452;47.698;19.050;2023-02-12T16:49:14;50.43;;;25.60;;
64936;SDS011;51452;47.698;19.050;2023-02-12T16:51:43;50.13;;;24.97;;
64936;SDS011;51452;47.698;19.050;2023-02-12T16:54:29;49.93;;;24.23;;
64936;SDS011;51452;47.698;19.050;2023-02-12T16:57:00;48.87;;;24.67;;
64936;SDS011;51452;47.698;19.050;2023-02-12T16:59:27;43.43;;;24.00;;
64936;SDS011;51452;47.698;19.050;2023-02-12T17:04:48;36.43;;;20.00;;
64936;SDS011;51452;47.698;19.050;2023-02-12T17:07:32;36.13;;;19.23;;
64936;SDS011;51452;47.698;19.050;2023-02-12T17:09:59;29.65;;;15.13;;
64936;SDS011;51452;47.698;19.050;2023-02-12T17:12:26;33.47;;;15.40;;
64936;SDS011;51452;47.698;19.050;2023-02-12T17:14:52;24.57;;;12.90;;
64936;SDS011;51452;47.698;19.050;2023-02-12T17:17:20;27.03;;;14.00;;
64936;SDS011;51452;47.698;19.050;2023-02-12T17:19:45;26.13;;;13.23;;
64936;SDS011;51452;47.698;19.050;2023-02-12T17:22:29;20.60;;;11.20;;
64936;SDS011;51452;47.698;19.050;2023-02-12T17:24:55;23.93;;;11.60;;
64936;SDS011;51452;47.698;19.050;2023-02-12T17:27:21;19.40;;;10.70;;
64936;SDS011;51452;47.698;19.050;2023-02-12T17:29:47;17.97;;;9.13;;
64936;SDS011;51452;47.698;19.050;2023-02-12T17:32:13;20.33;;;9.57;;
64936;SDS011;51452;47.698;19.050;2023-02-12T17:34:40;20.53;;;8.70;;
64936;SDS011;51452;47.698;19.050;2023-02-12T17:37:06;18.20;;;7.93;;
64936;SDS011;51452;47.698;19.050;2023-02-12T17:39:32;16.83;;;8.30;;
64936;SDS011;51452;47.698;19.050;2023-02-12T17:41:58;27.83;;;14.50;;
64936;SDS011;51452;47.698;19.050;2023-02-12T17:44:26;18.97;;;11.13;;
64936;SDS011;51452;47.698;19.050;2023-02-12T17:46:52;13.50;;;7.40;;
64936;SDS011;51452;47.698;19.050;2023-02-12T17:49:19;12.07;;;6.00;;
64936;SDS011;51452;47.698;19.050;2023-02-12T17:51:45;10.97;;;6.20;;